createdAt,value
2022-08-27T00:01:54.433Z,48.50
2022-08-27T00:04:21.544Z,43.20
2022-08-27T00:06:48.917Z,44.67
2022-08-27T00:09:26.576Z,45.33
2022-08-27T00:11:57.675Z,48.53
2022-08-27T00:14:26.886Z,45.33
2022-08-27T00:16:54.901Z,47.90
2022-08-27T00:19:22.742Z,46.70
2022-08-27T00:21:49.965Z,52.20
2022-08-27T00:24:17.042Z,44.93
2022-08-27T00:26:44.527Z,59.03
2022-08-27T00:29:14.528Z,50.60
2022-08-27T00:31:43.735Z,54.90
2022-08-27T00:34:13.104Z,56.47
2022-08-27T00:36:41.477Z,51.60
2022-08-27T00:39:11.712Z,58.70
2022-08-27T00:41:43.517Z,61.27
2022-08-27T00:44:13.745Z,56.47
2022-08-27T00:46:56.470Z,50.80
2022-08-27T00:50:14.333Z,54.10
2022-08-27T00:52:55.223Z,63.30
2022-08-27T00:55:28.674Z,75.07
2022-08-27T00:58:21.491Z,53.53
2022-08-27T01:00:49.116Z,72.50
2022-08-27T01:03:19.083Z,58.93
2022-08-27T01:05:52.533Z,78.97
2022-08-27T01:08:25.602Z,74.87
2022-08-27T01:10:55.021Z,77.97
2022-08-27T01:13:54.098Z,78.80
2022-08-27T01:16:26.981Z,77.53
2022-08-27T01:18:56.494Z,73.40
2022-08-27T01:21:43.852Z,66.63
2022-08-27T01:24:50.939Z,69.37
2022-08-27T01:27:25.540Z,80.70
2022-08-27T01:29:58.190Z,73.97
2022-08-27T01:32:32.446Z,66.97
2022-08-27T01:35:01.281Z,59.23
2022-08-27T01:37:31.629Z,76.53
2022-08-27T01:40:02.091Z,63.17
2022-08-27T01:42:39.421Z,73.90
2022-08-27T01:45:25.089Z,58.80
2022-08-27T01:47:55.108Z,59.13
2022-08-27T01:50:36.010Z,45.83
2022-08-27T01:53:25.093Z,73.80
2022-08-27T01:55:53.502Z,59.20
2022-08-27T01:58:25.607Z,64.77
2022-08-27T02:01:00.310Z,64.57
2022-08-27T02:03:27.864Z,75.90
2022-08-27T02:05:55.219Z,53.50
2022-08-27T02:08:22.833Z,94.47
2022-08-27T02:10:52.715Z,76.73
2022-08-27T02:13:22.385Z,66.50
2022-08-27T02:15:49.682Z,62.80
2022-08-27T02:18:19.659Z,70.70
2022-08-27T02:20:50.128Z,75.47
2022-08-27T02:23:20.742Z,74.27
2022-08-27T02:25:47.871Z,65.93
2022-08-27T02:28:18.426Z,70.97
2022-08-27T02:30:45.833Z,71.73
2022-08-27T02:33:16.736Z,71.27
2022-08-27T02:35:44.891Z,76.23
2022-08-27T02:38:14.164Z,57.13
2022-08-27T02:40:41.512Z,60.60
2022-08-27T02:43:09.077Z,74.43
2022-08-27T02:45:37.939Z,75.23
2022-08-27T02:48:08.079Z,71.23
2022-08-27T02:50:36.087Z,66.13
2022-08-27T02:53:05.978Z,64.27
2022-08-27T02:55:36.314Z,61.43
2022-08-27T02:58:04.843Z,74.93
2022-08-27T03:00:31.960Z,75.57
2022-08-27T03:03:02.408Z,63.47
2022-08-27T03:05:32.038Z,64.53
2022-08-27T03:07:59.854Z,81.53
2022-08-27T03:10:30.075Z,73.20
2022-08-27T03:12:59.851Z,71.23
2022-08-27T03:15:30.475Z,67.07
2022-08-27T03:18:21.825Z,66.73
2022-08-27T03:20:57.715Z,69.63
2022-08-27T03:23:33.365Z,61.20
2022-08-27T03:26:08.002Z,60.87
2022-08-27T03:28:36.350Z,80.10
2022-08-27T03:31:09.098Z,72.77
2022-08-27T03:33:39.450Z,79.63
2022-08-27T03:36:08.931Z,57.37
2022-08-27T03:38:40.679Z,70.73
2022-08-27T03:41:07.887Z,69.50
2022-08-27T03:43:37.459Z,77.70
2022-08-27T03:46:08.574Z,71.13
2022-08-27T03:48:36.523Z,84.80
2022-08-27T03:51:10.335Z,77.87
2022-08-27T03:53:44.337Z,77.67
2022-08-27T03:56:11.703Z,79.37
2022-08-27T03:58:42.396Z,73.23
2022-08-27T04:01:12.017Z,85.53
2022-08-27T04:03:41.435Z,66.53
2022-08-27T04:06:08.964Z,85.47
2022-08-27T04:08:38.402Z,93.20
2022-08-27T04:11:12.912Z,82.33
2022-08-27T04:13:41.207Z,86.33
2022-08-27T04:16:08.445Z,80.37
2022-08-27T04:18:35.723Z,76.67
2022-08-27T04:21:14.632Z,81.60
2022-08-27T04:23:44.938Z,84.87
2022-08-27T04:26:12.754Z,82.13
2022-08-27T04:28:42.661Z,86.13
2022-08-27T04:31:20.151Z,91.90
2022-08-27T04:33:51.253Z,81.60
2022-08-27T04:36:23.795Z,80.27
2022-08-27T04:38:53.365Z,67.77
2022-08-27T04:41:21.254Z,66.80
2022-08-27T04:44:10.708Z,60.90
2022-08-27T04:46:41.019Z,60.70
2022-08-27T04:49:16.173Z,74.77
2022-08-27T04:51:43.505Z,62.40
2022-08-27T04:54:11.174Z,71.63
2022-08-27T04:56:39.273Z,57.67
2022-08-27T04:59:10.160Z,84.93
2022-08-27T05:01:39.690Z,74.97
2022-08-27T05:04:13.456Z,74.90
2022-08-27T05:06:45.507Z,71.33
2022-08-27T05:09:15.410Z,61.93
2022-08-27T05:11:47.153Z,74.30
2022-08-27T05:14:16.356Z,72.87
2022-08-27T05:16:46.957Z,72.37
2022-08-27T05:19:16.684Z,68.70
2022-08-27T05:21:54.018Z,77.30
2022-08-27T05:24:25.669Z,56.27
2022-08-27T05:26:56.195Z,80.33
2022-08-27T05:29:28.793Z,80.17
2022-08-27T05:31:56.483Z,100.50
2022-08-27T05:34:26.186Z,87.30
2022-08-27T05:36:56.592Z,87.43
2022-08-27T05:39:25.844Z,72.17
2022-08-27T05:41:57.559Z,99.50
2022-08-27T05:44:42.489Z,78.97
2022-08-27T05:47:12.158Z,90.70
2022-08-27T05:49:39.209Z,82.47
2022-08-27T05:52:11.914Z,83.60
2022-08-27T05:54:39.958Z,74.40
2022-08-27T05:57:11.675Z,79.07
2022-08-27T05:59:57.543Z,104.73
2022-08-27T06:02:24.771Z,98.60
2022-08-27T06:04:55.007Z,100.80
2022-08-27T06:07:24.221Z,84.23
2022-08-27T06:09:53.260Z,82.63
2022-08-27T06:12:20.514Z,92.30
2022-08-27T06:14:55.624Z,87.80
2022-08-27T06:17:22.709Z,83.13
2022-08-27T06:19:51.829Z,74.70
2022-08-27T06:22:18.982Z,81.30
2022-08-27T06:24:46.149Z,68.40
2022-08-27T06:27:17.086Z,84.30
2022-08-27T06:29:47.209Z,84.90
2022-08-27T06:32:15.202Z,90.53
2022-08-27T06:34:42.392Z,91.57
2022-08-27T06:37:09.600Z,73.00
2022-08-27T06:39:40.491Z,71.03
2022-08-27T06:42:12.539Z,76.00
2022-08-27T06:44:42.271Z,67.60
2022-08-27T06:47:12.008Z,71.17
2022-08-27T06:49:46.175Z,68.37
2022-08-27T06:52:15.013Z,78.00
2022-08-27T06:54:41.972Z,69.27
2022-08-27T06:57:11.076Z,63.87
2022-08-27T06:59:38.795Z,68.73
2022-08-27T07:02:07.756Z,58.40
2022-08-27T07:04:34.772Z,66.77
2022-08-27T07:07:05.922Z,73.07
2022-08-27T07:09:34.805Z,66.53
2022-08-27T07:12:02.462Z,59.13
2022-08-27T07:14:37.792Z,62.53
2022-08-27T07:17:10.831Z,48.03
2022-08-27T07:19:42.848Z,45.37
2022-08-27T07:22:12.989Z,51.60
2022-08-27T07:24:40.156Z,44.90
2022-08-27T07:27:08.291Z,64.27
2022-08-27T07:29:35.559Z,41.97
2022-08-27T07:32:02.923Z,42.43
2022-08-27T07:34:30.075Z,41.23
2022-08-27T07:36:57.116Z,48.37
2022-08-27T07:39:24.257Z,37.60
2022-08-27T07:42:15.995Z,48.40
2022-08-27T07:44:45.692Z,39.73
2022-08-27T07:47:14.875Z,38.63
2022-08-27T07:49:44.292Z,49.73
2022-08-27T07:52:11.975Z,44.20
2022-08-27T07:54:39.293Z,53.97
2022-08-27T07:57:06.540Z,53.20
2022-08-27T07:59:33.626Z,38.40
2022-08-27T08:02:03.360Z,48.90
2022-08-27T08:04:30.683Z,44.17
2022-08-27T08:07:00.295Z,48.40
2022-08-27T08:09:27.534Z,37.87
2022-08-27T08:11:54.866Z,42.33
2022-08-27T08:14:22.301Z,46.43
2022-08-27T08:16:52.301Z,43.33
2022-08-27T08:19:22.279Z,40.60
2022-08-27T08:21:56.495Z,60.60
2022-08-27T08:24:27.036Z,56.00
2022-08-27T08:26:56.145Z,56.90
2022-08-27T08:29:30.227Z,67.87
2022-08-27T08:31:57.265Z,74.17
2022-08-27T08:34:24.259Z,84.80
2022-08-27T08:36:54.894Z,74.93
2022-08-27T08:39:26.366Z,75.80
2022-08-27T08:42:00.464Z,71.63
2022-08-27T08:44:46.321Z,74.03
2022-08-27T08:47:45.954Z,68.50
2022-08-27T08:50:30.876Z,66.17
2022-08-27T08:53:21.191Z,70.87
2022-08-27T08:55:59.385Z,59.43
2022-08-27T08:58:53.297Z,64.23
2022-08-27T09:01:21.841Z,73.33
2022-08-27T09:03:58.474Z,68.70
2022-08-27T09:06:43.432Z,74.07
2022-08-27T09:09:49.347Z,63.90
2022-08-27T09:12:25.022Z,71.43
2022-08-27T09:15:19.210Z,54.33
2022-08-27T09:17:47.752Z,59.17
2022-08-27T09:20:22.786Z,63.13
2022-08-27T09:23:14.945Z,60.03
2022-08-27T09:25:43.612Z,73.70
2022-08-27T09:28:36.482Z,60.60
2022-08-27T09:31:13.541Z,60.83
2022-08-27T09:33:56.258Z,55.67
2022-08-27T09:36:24.586Z,52.50
2022-08-27T09:39:01.858Z,60.80
2022-08-27T09:41:36.716Z,48.07
2022-08-27T09:44:11.951Z,52.43
2022-08-27T09:46:58.039Z,58.47
2022-08-27T09:49:26.957Z,50.67
2022-08-27T09:51:55.805Z,51.97
2022-08-27T09:54:45.036Z,49.67
2022-08-27T09:57:15.153Z,44.90
2022-08-27T09:59:57.593Z,41.77
2022-08-27T10:02:28.171Z,57.60
2022-08-27T10:05:00.999Z,49.67
2022-08-27T10:07:53.913Z,52.97
2022-08-27T10:10:55.478Z,71.67
2022-08-27T10:13:33.817Z,53.80
2022-08-27T10:16:26.381Z,50.47
2022-08-27T10:19:20.388Z,57.47
2022-08-27T10:22:19.185Z,50.40
2022-08-27T10:25:07.155Z,47.13
2022-08-27T10:28:05.065Z,45.03
2022-08-27T10:30:57.163Z,50.63
2022-08-27T10:33:59.683Z,44.13
2022-08-27T10:36:44.634Z,51.20
2022-08-27T10:39:42.970Z,46.17
2022-08-27T10:42:21.671Z,67.70
2022-08-27T10:45:12.359Z,38.73
2022-08-27T10:47:57.386Z,43.70
2022-08-27T10:51:02.066Z,51.43
2022-08-27T10:53:55.511Z,51.27
2022-08-27T10:56:32.401Z,46.60
2022-08-27T10:59:16.656Z,45.00
2022-08-27T11:02:15.221Z,49.33
2022-08-27T11:04:53.106Z,34.67
2022-08-27T11:07:33.545Z,36.57
2022-08-27T11:10:06.159Z,37.20
2022-08-27T11:12:41.440Z,30.87
2022-08-27T11:15:42.116Z,34.30
2022-08-27T11:18:22.184Z,25.70
2022-08-27T11:21:05.819Z,27.40
2022-08-27T11:23:58.235Z,29.07
2022-08-27T11:26:27.843Z,27.07
2022-08-27T11:29:00.435Z,27.37
2022-08-27T11:31:53.242Z,23.70
2022-08-27T11:34:39.795Z,30.50
2022-08-27T11:37:30.589Z,29.40
2022-08-27T11:40:54.262Z,31.00
2022-08-27T11:43:26.594Z,28.03
2022-08-27T11:46:06.780Z,33.00
2022-08-27T11:48:57.702Z,21.23
2022-08-27T11:51:35.810Z,26.37
2022-08-27T11:54:13.427Z,27.13
2022-08-27T11:56:43.529Z,20.67
2022-08-27T11:59:23.811Z,21.87
2022-08-27T12:01:56.974Z,25.47
2022-08-27T12:04:44.322Z,18.60
2022-08-27T12:07:14.313Z,28.23
2022-08-27T12:09:56.202Z,23.03
2022-08-27T12:12:53.176Z,24.83
2022-08-27T12:15:35.142Z,28.80
2022-08-27T12:18:34.074Z,31.30
2022-08-27T12:21:39.551Z,39.90
2022-08-27T12:24:21.445Z,44.50
2022-08-27T12:27:15.670Z,38.83
2022-08-27T12:29:56.476Z,40.23
2022-08-27T12:32:30.668Z,38.50
2022-08-27T12:35:07.056Z,41.77
2022-08-27T12:38:15.957Z,36.33
2022-08-27T12:41:03.842Z,47.87
2022-08-27T12:43:35.666Z,31.90
2022-08-27T12:46:18.040Z,43.40
2022-08-27T12:48:48.283Z,34.17
2022-08-27T12:51:33.327Z,40.23
2022-08-27T12:54:47.593Z,35.30
2022-08-27T12:57:46.180Z,49.90
2022-08-27T13:00:26.262Z,42.57
2022-08-27T13:03:35.701Z,37.03
2022-08-27T13:06:02.766Z,47.33
2022-08-27T13:08:34.647Z,37.10
2022-08-27T13:11:18.140Z,44.63
2022-08-27T13:13:47.774Z,39.37
2022-08-27T13:16:20.273Z,53.23
2022-08-27T13:18:51.831Z,43.60
2022-08-27T13:21:27.545Z,48.57
2022-08-27T13:24:00.675Z,41.50
2022-08-27T13:26:34.062Z,43.40
2022-08-27T13:29:05.902Z,38.27
2022-08-27T13:31:36.622Z,25.30
2022-08-27T13:34:06.191Z,37.00
2022-08-27T13:36:55.739Z,36.03
2022-08-27T13:39:23.114Z,23.87
2022-08-27T13:41:52.592Z,30.33
2022-08-27T13:44:32.964Z,24.73
2022-08-27T13:47:03.946Z,33.37
2022-08-27T13:49:40.156Z,33.27
2022-08-27T13:52:28.580Z,22.53
2022-08-27T13:55:16.447Z,34.13
2022-08-27T13:57:50.380Z,20.67
2022-08-27T14:00:29.787Z,18.10
2022-08-27T14:02:58.849Z,16.33
2022-08-27T14:05:26.897Z,17.00
2022-08-27T14:08:01.075Z,10.77
2022-08-27T14:10:44.286Z,10.07
2022-08-27T14:13:21.087Z,15.17
2022-08-27T14:15:54.670Z,14.87
2022-08-27T14:21:25.854Z,14.27
2022-08-27T14:23:54.031Z,17.73
2022-08-27T14:26:21.433Z,20.07
2022-08-27T14:28:51.154Z,7.17
2022-08-27T14:31:23.232Z,13.13
2022-08-27T14:33:56.795Z,20.10
2022-08-27T14:36:37.416Z,18.37
2022-08-27T14:39:08.643Z,13.03
2022-08-27T14:41:36.104Z,16.33
2022-08-27T14:44:03.355Z,8.07
2022-08-27T14:46:36.270Z,13.77
2022-08-27T14:49:22.118Z,12.20
2022-08-27T14:51:49.266Z,11.30
2022-08-27T14:54:16.197Z,14.77
2022-08-27T14:56:43.266Z,23.90
2022-08-27T14:59:10.230Z,15.23
2022-08-27T15:01:39.955Z,16.77
2022-08-27T15:04:07.770Z,11.13
2022-08-27T15:06:34.828Z,15.27
2022-08-27T15:09:01.864Z,12.07
2022-08-27T15:11:35.321Z,21.43
2022-08-27T15:14:09.331Z,24.33
2022-08-27T15:16:42.521Z,6.97
2022-08-27T15:19:16.422Z,17.80
2022-08-27T15:21:49.204Z,17.77
2022-08-27T15:24:24.925Z,8.73
2022-08-27T15:26:57.339Z,14.77
2022-08-27T15:29:27.587Z,15.40
2022-08-27T15:31:54.563Z,7.03
2022-08-27T15:34:21.744Z,18.43
2022-08-27T15:36:50.950Z,10.53
2022-08-27T15:39:17.850Z,44.90
2022-08-27T15:42:05.703Z,15.03
2022-08-27T15:44:32.057Z,20.00
2022-08-27T15:46:59.111Z,10.43
2022-08-27T15:49:30.797Z,7.00
2022-08-27T15:52:00.819Z,9.33
2022-08-27T15:54:28.334Z,16.90
2022-08-27T15:57:00.638Z,8.83
2022-08-27T15:59:28.030Z,23.37
2022-08-27T16:01:58.004Z,16.33
2022-08-27T16:04:24.912Z,10.17
2022-08-27T16:06:51.811Z,11.80
2022-08-27T16:09:19.282Z,15.77
2022-08-27T16:11:46.193Z,18.90
2022-08-27T16:14:17.715Z,13.50
2022-08-27T16:16:50.019Z,13.57
2022-08-27T16:19:19.810Z,10.07
2022-08-27T16:21:47.840Z,16.20
2022-08-27T16:24:19.082Z,12.80
2022-08-27T16:26:49.363Z,16.60
2022-08-27T16:29:16.550Z,18.20
2022-08-27T16:31:43.754Z,16.13
2022-08-27T16:34:18.376Z,11.10
2022-08-27T16:36:49.847Z,7.33
2022-08-27T16:39:16.755Z,9.17
2022-08-27T16:41:43.700Z,8.57
2022-08-27T16:44:11.000Z,12.70
2022-08-27T16:46:38.294Z,11.10
2022-08-27T16:49:26.149Z,11.57
2022-08-27T16:51:53.154Z,5.03
2022-08-27T16:54:21.398Z,9.30
2022-08-27T16:56:50.842Z,9.93
2022-08-27T16:59:21.209Z,10.83
2022-08-27T17:01:54.245Z,15.90
2022-08-27T17:04:31.224Z,19.53
2022-08-27T17:07:02.353Z,16.83
2022-08-27T17:09:30.563Z,12.33
2022-08-27T17:11:58.732Z,20.50
2022-08-27T17:14:26.796Z,10.30
2022-08-27T17:16:54.063Z,14.80
2022-08-27T17:19:26.151Z,7.40
2022-08-27T17:21:54.823Z,10.30
2022-08-27T17:24:22.293Z,23.60
2022-08-27T17:26:51.472Z,7.03
2022-08-27T17:29:19.754Z,11.40
2022-08-27T17:31:46.673Z,21.77
2022-08-27T17:34:19.519Z,30.77
2022-08-27T17:36:52.101Z,18.00
2022-08-27T17:39:22.644Z,18.07
2022-08-27T17:41:53.388Z,14.30
2022-08-27T17:44:35.677Z,16.37
2022-08-27T17:47:08.200Z,18.83
2022-08-27T17:49:36.202Z,8.10
2022-08-27T17:52:10.400Z,14.20
2022-08-27T17:54:46.414Z,16.20
2022-08-27T17:57:36.162Z,18.50
2022-08-27T18:00:14.323Z,18.77
2022-08-27T18:02:48.126Z,9.67
2022-08-27T18:05:18.270Z,24.43
2022-08-27T18:07:47.109Z,10.00
2022-08-27T18:10:23.795Z,19.77
2022-08-27T18:12:55.458Z,22.03
2022-08-27T18:15:32.103Z,22.80
2022-08-27T18:18:01.965Z,18.17
2022-08-27T18:20:33.132Z,19.47
2022-08-27T18:23:00.335Z,12.43
2022-08-27T18:25:36.331Z,22.53
2022-08-27T18:28:08.230Z,19.03
2022-08-27T18:30:39.585Z,15.40
2022-08-27T18:33:09.091Z,16.63
2022-08-27T18:35:37.786Z,15.10
2022-08-27T18:38:09.633Z,16.67
2022-08-27T18:40:51.778Z,17.20
2022-08-27T18:43:21.294Z,15.10
2022-08-27T18:45:50.944Z,22.03
2022-08-27T18:48:22.463Z,16.50
2022-08-27T18:50:58.490Z,13.27
2022-08-27T18:53:31.000Z,17.47
2022-08-27T18:55:58.851Z,23.20
2022-08-27T18:58:26.646Z,23.10
2022-08-27T19:01:02.147Z,21.83
2022-08-27T19:03:35.707Z,30.83
2022-08-27T19:06:08.862Z,16.33
2022-08-27T19:08:40.364Z,23.10
2022-08-27T19:11:10.171Z,10.90
2022-08-27T19:13:37.542Z,44.27
2022-08-27T19:16:33.434Z,23.27
2022-08-27T19:19:00.528Z,15.03
2022-08-27T19:21:27.445Z,24.43
2022-08-27T19:23:57.950Z,17.63
2022-08-27T19:26:25.877Z,15.93
2022-08-27T19:28:56.282Z,15.90
2022-08-27T19:31:23.365Z,21.00
2022-08-27T19:33:52.870Z,26.13
2022-08-27T19:36:23.483Z,34.53
2022-08-27T19:38:54.207Z,22.07
2022-08-27T19:41:26.062Z,29.20
2022-08-27T19:43:57.281Z,16.17
2022-08-27T19:46:28.957Z,22.20
2022-08-27T19:48:58.136Z,21.13
2022-08-27T19:51:25.293Z,16.43
2022-08-27T19:53:56.693Z,13.27
2022-08-27T19:56:23.695Z,26.27
2022-08-27T19:58:56.593Z,25.03
2022-08-27T20:01:25.659Z,18.33
2022-08-27T20:03:52.617Z,21.07
2022-08-27T20:06:27.117Z,22.70
2022-08-27T20:08:57.223Z,18.93
2022-08-27T20:11:24.239Z,21.73
2022-08-27T20:13:51.210Z,21.07
2022-08-27T20:16:20.413Z,19.27
2022-08-27T20:18:50.278Z,23.47
2022-08-27T20:21:17.219Z,25.73
2022-08-27T20:23:44.168Z,23.43
2022-08-27T20:26:14.114Z,12.80
2022-08-27T20:28:41.719Z,31.93
2022-08-27T20:31:09.106Z,40.83
2022-08-27T20:33:36.192Z,26.67
2022-08-27T20:36:06.182Z,17.07
2022-08-27T20:38:33.329Z,25.03
2022-08-27T20:41:02.985Z,25.37
2022-08-27T20:43:32.081Z,32.63
2022-08-27T20:45:59.946Z,23.93
2022-08-27T20:48:29.924Z,44.23
2022-08-27T20:50:59.150Z,19.13
2022-08-27T20:53:28.388Z,26.47
2022-08-27T20:55:57.418Z,28.50
2022-08-27T20:58:46.083Z,20.37
2022-08-27T21:01:14.577Z,22.17
2022-08-27T21:03:44.481Z,21.33
2022-08-27T21:06:11.515Z,17.40
2022-08-27T21:08:39.829Z,32.80
2022-08-27T21:11:16.091Z,23.13
2022-08-27T21:13:55.797Z,21.53
2022-08-27T21:16:24.963Z,35.50
2022-08-27T21:18:53.687Z,26.90
2022-08-27T21:21:20.721Z,19.10
2022-08-27T21:23:48.782Z,20.67
2022-08-27T21:26:20.114Z,27.33
2022-08-27T21:28:49.261Z,16.60
2022-08-27T21:31:22.655Z,31.50
2022-08-27T21:33:52.229Z,19.60
2022-08-27T21:36:19.294Z,22.30
2022-08-27T21:38:46.211Z,23.10
2022-08-27T21:41:16.123Z,32.10
2022-08-27T21:43:43.047Z,20.40
2022-08-27T21:46:12.068Z,17.10
2022-08-27T21:48:41.667Z,21.33
2022-08-27T21:51:15.490Z,24.50
2022-08-27T21:53:54.914Z,13.03
2022-08-27T21:56:21.814Z,20.13
2022-08-27T21:58:48.703Z,21.00
2022-08-27T22:01:22.861Z,21.77
2022-08-27T22:03:55.214Z,15.10
2022-08-27T22:06:24.456Z,19.33
2022-08-27T22:08:51.302Z,23.10
2022-08-27T22:11:21.997Z,22.77
2022-08-27T22:13:51.475Z,16.30
2022-08-27T22:16:18.531Z,21.30
2022-08-27T22:18:45.568Z,25.83
2022-08-27T22:21:12.650Z,32.27
2022-08-27T22:23:39.605Z,21.73
2022-08-27T22:26:11.958Z,31.87
2022-08-27T22:28:40.948Z,20.23
2022-08-27T22:31:08.268Z,31.03
2022-08-27T22:33:35.247Z,20.17
2022-08-27T22:36:02.373Z,27.50
2022-08-27T22:38:29.320Z,19.20
2022-08-27T22:40:56.289Z,29.53
2022-08-27T22:43:26.194Z,23.43
2022-08-27T22:45:53.101Z,19.23
2022-08-27T22:48:20.023Z,22.93
2022-08-27T22:50:46.960Z,15.57
2022-08-27T22:53:16.314Z,26.43
2022-08-27T22:55:49.866Z,24.87
2022-08-27T22:58:24.380Z,20.93
2022-08-27T23:00:56.693Z,27.97
2022-08-27T23:03:23.612Z,10.67
2022-08-27T23:05:50.589Z,21.87
2022-08-27T23:08:19.750Z,31.00
2022-08-27T23:10:46.639Z,22.77
2022-08-27T23:13:15.921Z,25.50
2022-08-27T23:15:42.928Z,23.00
2022-08-27T23:18:12.360Z,27.03
2022-08-27T23:20:41.957Z,20.77
2022-08-27T23:23:10.139Z,35.33
2022-08-27T23:25:56.432Z,29.23
2022-08-27T23:28:23.906Z,16.47
2022-08-27T23:30:52.965Z,26.83
2022-08-27T23:33:20.100Z,22.97
2022-08-27T23:35:50.321Z,24.83
2022-08-27T23:38:19.596Z,33.80
2022-08-27T23:40:48.163Z,40.13
2022-08-27T23:43:16.766Z,24.80
2022-08-27T23:45:43.816Z,24.17
2022-08-27T23:48:11.290Z,17.33
2022-08-27T23:50:38.893Z,17.53
2022-08-27T23:53:07.345Z,25.13
2022-08-27T23:55:38.493Z,27.73
2022-08-27T23:58:06.838Z,20.87
